Terminal Aerodrome Forecast
Issued by NWS

Home | Current Version | Previous Version | Text Only | Print | Product List | Glossary On
Versions: 1 2 3 4 5 6 7 8 9 10 11 12 13 14 15 16 17 18
000
FTUS44 KBMX 300520
TAFTCL
TAF
KTCL 300520Z 3006/3106 18006KT 6SM -SHRA SCT025 BKN040
     FM300900 00000KT 4SM BR OVC015
      TEMPO 3011/3014 BKN007
     FM301800 02004KT P6SM VCTS SCT025CB OVC050
     FM310300 05003KT P6SM BKN050=

USA.gov is the U.S. government's official web portal to all federal, state and local government web resources and services.